sensor_id;sensor_type;location;lat;lon;timestamp;temperature;humidity
24772;DHT22;12870;52.274;9.754;2022-07-24T00:02:08;15.80;99.90
24772;DHT22;12870;52.274;9.754;2022-07-24T00:04:33;15.80;99.90
24772;DHT22;12870;52.274;9.754;2022-07-24T00:06:59;15.70;99.90
24772;DHT22;12870;52.274;9.754;2022-07-24T00:09:25;15.60;99.90
24772;DHT22;12870;52.274;9.754;2022-07-24T00:11:50;15.60;99.90
24772;DHT22;12870;52.274;9.754;2022-07-24T00:14:16;15.60;99.90
24772;DHT22;12870;52.274;9.754;2022-07-24T00:16:42;15.60;99.90
24772;DHT22;12870;52.274;9.754;2022-07-24T00:19:08;15.60;99.90
24772;DHT22;12870;52.274;9.754;2022-07-24T00:21:34;15.60;99.90
24772;DHT22;12870;52.274;9.754;2022-07-24T00:24:00;15.50;99.90
24772;DHT22;12870;52.274;9.754;2022-07-24T00:26:26;15.50;99.90
24772;DHT22;12870;52.274;9.754;2022-07-24T00:28:52;15.40;99.90
24772;DHT22;12870;52.274;9.754;2022-07-24T00:31:18;15.40;99.90
24772;DHT22;12870;52.274;9.754;2022-07-24T00:33:44;15.40;99.90
24772;DHT22;12870;52.274;9.754;2022-07-24T00:36:10;15.30;99.90
24772;DHT22;12870;52.274;9.754;2022-07-24T00:38:36;15.30;99.90
24772;DHT22;12870;52.274;9.754;2022-07-24T00:41:02;15.20;99.90
24772;DHT22;12870;52.274;9.754;2022-07-24T00:43:27;15.20;99.90
24772;DHT22;12870;52.274;9.754;2022-07-24T00:45:53;15.10;99.90
24772;DHT22;12870;52.274;9.754;2022-07-24T00:48:19;15.00;99.90
24772;DHT22;12870;52.274;9.754;2022-07-24T00:50:45;15.00;99.90
24772;DHT22;12870;52.274;9.754;2022-07-24T00:53:10;15.00;99.90
24772;DHT22;12870;52.274;9.754;2022-07-24T00:55:36;14.90;99.90
24772;DHT22;12870;52.274;9.754;2022-07-24T00:58:02;14.90;99.90
24772;DHT22;12870;52.274;9.754;2022-07-24T01:00:29;14.80;99.90
24772;DHT22;12870;52.274;9.754;2022-07-24T01:02:55;14.80;99.90
24772;DHT22;12870;52.274;9.754;2022-07-24T01:05:21;14.70;99.90
24772;DHT22;12870;52.274;9.754;2022-07-24T01:07:47;14.80;99.90
24772;DHT22;12870;52.274;9.754;2022-07-24T01:10:13;14.80;99.90
24772;DHT22;12870;52.274;9.754;2022-07-24T01:12:39;14.80;99.90
24772;DHT22;12870;52.274;9.754;2022-07-24T01:15:08;14.70;99.90
24772;DHT22;12870;52.274;9.754;2022-07-24T01:17:35;14.60;99.90
24772;DHT22;12870;52.274;9.754;2022-07-24T01:20:03;14.70;99.90
24772;DHT22;12870;52.274;9.754;2022-07-24T01:22:30;14.70;99.90
24772;DHT22;12870;52.274;9.754;2022-07-24T01:24:56;14.60;99.90
24772;DHT22;12870;52.274;9.754;2022-07-24T01:27:23;14.60;99.90
24772;DHT22;12870;52.274;9.754;2022-07-24T01:29:49;14.70;99.90
24772;DHT22;12870;52.274;9.754;2022-07-24T01:32:15;14.70;99.90
24772;DHT22;12870;52.274;9.754;2022-07-24T01:34:41;14.70;99.90
24772;DHT22;12870;52.274;9.754;2022-07-24T01:37:07;14.70;99.90
24772;DHT22;12870;52.274;9.754;2022-07-24T01:39:33;14.70;99.90
24772;DHT22;12870;52.274;9.754;2022-07-24T01:41:58;14.70;99.90
24772;DHT22;12870;52.274;9.754;2022-07-24T01:44:24;14.70;99.90
24772;DHT22;12870;52.274;9.754;2022-07-24T01:46:50;14.70;99.90
24772;DHT22;12870;52.274;9.754;2022-07-24T01:49:15;14.60;99.90
24772;DHT22;12870;52.274;9.754;2022-07-24T01:51:42;14.60;99.90
24772;DHT22;12870;52.274;9.754;2022-07-24T01:54:08;14.50;99.90
24772;DHT22;12870;52.274;9.754;2022-07-24T01:56:34;14.60;99.90
24772;DHT22;12870;52.274;9.754;2022-07-24T01:59:00;14.50;99.90
24772;DHT22;12870;52.274;9.754;2022-07-24T02:01:26;14.50;99.90
24772;DHT22;12870;52.274;9.754;2022-07-24T02:03:52;14.50;99.90
24772;DHT22;12870;52.274;9.754;2022-07-24T02:06:18;14.50;99.90
24772;DHT22;12870;52.274;9.754;2022-07-24T02:08:44;14.40;99.90
24772;DHT22;12870;52.274;9.754;2022-07-24T02:11:09;14.40;99.90
24772;DHT22;12870;52.274;9.754;2022-07-24T02:13:35;14.40;99.90
24772;DHT22;12870;52.274;9.754;2022-07-24T02:16:01;14.40;99.90
24772;DHT22;12870;52.274;9.754;2022-07-24T02:18:27;14.50;99.90
24772;DHT22;12870;52.274;9.754;2022-07-24T02:20:53;14.50;99.90
24772;DHT22;12870;52.274;9.754;2022-07-24T02:23:19;14.50;99.90
24772;DHT22;12870;52.274;9.754;2022-07-24T02:25:48;14.60;99.90
24772;DHT22;12870;52.274;9.754;2022-07-24T02:28:15;14.70;99.90
24772;DHT22;12870;52.274;9.754;2022-07-24T02:30:41;14.80;99.90
24772;DHT22;12870;52.274;9.754;2022-07-24T02:33:07;14.90;99.90
24772;DHT22;12870;52.274;9.754;2022-07-24T02:35:34;14.90;99.90
24772;DHT22;12870;52.274;9.754;2022-07-24T02:38:00;15.00;99.90
24772;DHT22;12870;52.274;9.754;2022-07-24T02:40:26;15.00;99.90
24772;DHT22;12870;52.274;9.754;2022-07-24T02:42:51;14.90;99.90
24772;DHT22;12870;52.274;9.754;2022-07-24T02:45:17;14.90;99.90
24772;DHT22;12870;52.274;9.754;2022-07-24T02:47:52;14.90;99.90
24772;DHT22;12870;52.274;9.754;2022-07-24T02:50:20;14.90;99.90
24772;DHT22;12870;52.274;9.754;2022-07-24T02:52:47;14.80;99.90
24772;DHT22;12870;52.274;9.754;2022-07-24T02:55:13;14.80;99.90
24772;DHT22;12870;52.274;9.754;2022-07-24T02:57:39;14.80;99.90
24772;DHT22;12870;52.274;9.754;2022-07-24T03:00:07;14.70;99.90
24772;DHT22;12870;52.274;9.754;2022-07-24T03:02:33;14.70;99.90
24772;DHT22;12870;52.274;9.754;2022-07-24T03:04:59;14.70;99.90
24772;DHT22;12870;52.274;9.754;2022-07-24T03:07:26;14.60;99.90
24772;DHT22;12870;52.274;9.754;2022-07-24T03:09:52;14.60;99.90
24772;DHT22;12870;52.274;9.754;2022-07-24T03:12:18;14.50;99.90
24772;DHT22;12870;52.274;9.754;2022-07-24T03:14:43;14.50;99.90
24772;DHT22;12870;52.274;9.754;2022-07-24T03:17:09;14.50;99.90
24772;DHT22;12870;52.274;9.754;2022-07-24T03:19:34;14.50;99.90
24772;DHT22;12870;52.274;9.754;2022-07-24T03:22:00;14.50;99.90
24772;DHT22;12870;52.274;9.754;2022-07-24T03:24:26;14.50;99.90
24772;DHT22;12870;52.274;9.754;2022-07-24T03:26:52;14.50;99.90
24772;DHT22;12870;52.274;9.754;2022-07-24T03:29:17;14.50;99.90
24772;DHT22;12870;52.274;9.754;2022-07-24T03:31:43;14.40;99.90
24772;DHT22;12870;52.274;9.754;2022-07-24T03:34:09;14.40;99.90
24772;DHT22;12870;52.274;9.754;2022-07-24T03:36:34;14.40;99.90
24772;DHT22;12870;52.274;9.754;2022-07-24T03:39:01;14.40;99.90
24772;DHT22;12870;52.274;9.754;2022-07-24T03:41:26;14.30;99.90
24772;DHT22;12870;52.274;9.754;2022-07-24T03:43:52;14.30;99.90
24772;DHT22;12870;52.274;9.754;2022-07-24T03:46:18;14.30;99.90
24772;DHT22;12870;52.274;9.754;2022-07-24T03:48:43;14.40;99.90
24772;DHT22;12870;52.274;9.754;2022-07-24T03:51:09;14.40;99.90
24772;DHT22;12870;52.274;9.754;2022-07-24T03:53:35;14.40;99.90
24772;DHT22;12870;52.274;9.754;2022-07-24T03:56:04;14.40;99.90
24772;DHT22;12870;52.274;9.754;2022-07-24T03:58:31;14.40;99.90
24772;DHT22;12870;52.274;9.754;2022-07-24T04:00:57;14.50;99.90
24772;DHT22;12870;52.274;9.754;2022-07-24T04:03:23;14.50;99.90
24772;DHT22;12870;52.274;9.754;2022-07-24T04:05:48;14.60;99.90
24772;DHT22;12870;52.274;9.754;2022-07-24T04:08:14;14.50;99.90
24772;DHT22;12870;52.274;9.754;2022-07-24T04:10:40;14.50;99.90
24772;DHT22;12870;52.274;9.754;2022-07-24T04:13:05;14.50;99.90
24772;DHT22;12870;52.274;9.754;2022-07-24T04:15:31;14.50;99.90
24772;DHT22;12870;52.274;9.754;2022-07-24T04:17:57;14.50;99.90
24772;DHT22;12870;52.274;9.754;2022-07-24T04:20:23;14.60;99.90
24772;DHT22;12870;52.274;9.754;2022-07-24T04:22:48;14.60;99.90
24772;DHT22;12870;52.274;9.754;2022-07-24T04:25:14;14.60;99.90
24772;DHT22;12870;52.274;9.754;2022-07-24T04:27:40;14.60;99.90
24772;DHT22;12870;52.274;9.754;2022-07-24T04:30:06;14.60;99.90
24772;DHT22;12870;52.274;9.754;2022-07-24T04:32:32;14.70;99.90
24772;DHT22;12870;52.274;9.754;2022-07-24T04:34:58;14.80;99.90
24772;DHT22;12870;52.274;9.754;2022-07-24T04:37:23;14.80;99.90
24772;DHT22;12870;52.274;9.754;2022-07-24T04:39:49;14.90;99.90
24772;DHT22;12870;52.274;9.754;2022-07-24T04:42:15;14.90;99.90
24772;DHT22;12870;52.274;9.754;2022-07-24T04:44:41;14.90;99.90
24772;DHT22;12870;52.274;9.754;2022-07-24T04:47:06;14.90;99.90
24772;DHT22;12870;52.274;9.754;2022-07-24T04:49:32;15.00;99.90
24772;DHT22;12870;52.274;9.754;2022-07-24T04:51:58;15.10;99.90
24772;DHT22;12870;52.274;9.754;2022-07-24T04:54:23;15.20;99.90
24772;DHT22;12870;52.274;9.754;2022-07-24T04:56:49;15.30;99.90
24772;DHT22;12870;52.274;9.754;2022-07-24T04:59:15;15.40;99.90
24772;DHT22;12870;52.274;9.754;2022-07-24T05:01:40;15.50;99.90
24772;DHT22;12870;52.274;9.754;2022-07-24T05:04:06;15.50;99.90
24772;DHT22;12870;52.274;9.754;2022-07-24T05:06:32;15.50;99.90
24772;DHT22;12870;52.274;9.754;2022-07-24T05:08:57;15.60;99.90
24772;DHT22;12870;52.274;9.754;2022-07-24T05:11:23;15.70;99.90
24772;DHT22;12870;52.274;9.754;2022-07-24T05:13:49;15.70;99.90
24772;DHT22;12870;52.274;9.754;2022-07-24T05:16:15;15.80;99.90
24772;DHT22;12870;52.274;9.754;2022-07-24T05:18:40;15.80;99.90
24772;DHT22;12870;52.274;9.754;2022-07-24T05:21:06;15.90;99.90
24772;DHT22;12870;52.274;9.754;2022-07-24T05:23:33;15.90;99.90
24772;DHT22;12870;52.274;9.754;2022-07-24T05:25:59;16.00;99.90
24772;DHT22;12870;52.274;9.754;2022-07-24T05:28:24;16.10;99.90
24772;DHT22;12870;52.274;9.754;2022-07-24T05:30:50;16.10;99.90
24772;DHT22;12870;52.274;9.754;2022-07-24T05:33:16;16.20;99.90
24772;DHT22;12870;52.274;9.754;2022-07-24T05:35:41;16.30;99.90
24772;DHT22;12870;52.274;9.754;2022-07-24T05:38:07;16.40;99.90
24772;DHT22;12870;52.274;9.754;2022-07-24T05:40:33;16.50;99.90
24772;DHT22;12870;52.274;9.754;2022-07-24T05:42:58;16.50;99.90
24772;DHT22;12870;52.274;9.754;2022-07-24T05:45:24;16.60;99.90
24772;DHT22;12870;52.274;9.754;2022-07-24T05:47:50;16.70;99.90
24772;DHT22;12870;52.274;9.754;2022-07-24T05:50:16;16.80;99.90
24772;DHT22;12870;52.274;9.754;2022-07-24T05:52:41;17.00;99.90
24772;DHT22;12870;52.274;9.754;2022-07-24T05:55:08;17.10;99.90
24772;DHT22;12870;52.274;9.754;2022-07-24T05:57:34;17.10;99.90
24772;DHT22;12870;52.274;9.754;2022-07-24T06:00:00;17.20;99.90
24772;DHT22;12870;52.274;9.754;2022-07-24T06:02:26;17.30;99.90
24772;DHT22;12870;52.274;9.754;2022-07-24T06:04:52;17.40;99.90
24772;DHT22;12870;52.274;9.754;2022-07-24T06:07:17;17.50;99.90
24772;DHT22;12870;52.274;9.754;2022-07-24T06:09:43;17.60;99.90
24772;DHT22;12870;52.274;9.754;2022-07-24T06:12:09;17.70;99.90
24772;DHT22;12870;52.274;9.754;2022-07-24T06:14:35;17.80;99.90
24772;DHT22;12870;52.274;9.754;2022-07-24T06:17:01;18.00;99.90
24772;DHT22;12870;52.274;9.754;2022-07-24T06:19:27;18.10;99.90
24772;DHT22;12870;52.274;9.754;2022-07-24T06:21:52;18.20;99.90
24772;DHT22;12870;52.274;9.754;2022-07-24T06:24:18;18.30;99.90
24772;DHT22;12870;52.274;9.754;2022-07-24T06:26:44;18.40;99.90
24772;DHT22;12870;52.274;9.754;2022-07-24T06:29:10;18.50;99.90
24772;DHT22;12870;52.274;9.754;2022-07-24T06:31:35;18.60;99.90
24772;DHT22;12870;52.274;9.754;2022-07-24T06:34:01;18.70;99.90
24772;DHT22;12870;52.274;9.754;2022-07-24T06:36:27;18.90;99.90
24772;DHT22;12870;52.274;9.754;2022-07-24T06:38:53;18.90;99.90
24772;DHT22;12870;52.274;9.754;2022-07-24T06:41:18;19.00;99.90
24772;DHT22;12870;52.274;9.754;2022-07-24T06:43:44;19.10;99.90
24772;DHT22;12870;52.274;9.754;2022-07-24T06:46:10;19.20;99.90
24772;DHT22;12870;52.274;9.754;2022-07-24T06:48:36;19.30;99.90
24772;DHT22;12870;52.274;9.754;2022-07-24T06:51:02;19.50;99.90
24772;DHT22;12870;52.274;9.754;2022-07-24T06:53:27;19.60;99.90
24772;DHT22;12870;52.274;9.754;2022-07-24T06:55:53;19.70;99.90
24772;DHT22;12870;52.274;9.754;2022-07-24T06:58:20;19.80;99.90
24772;DHT22;12870;52.274;9.754;2022-07-24T07:00:47;19.90;99.90
24772;DHT22;12870;52.274;9.754;2022-07-24T07:03:13;20.10;99.90
24772;DHT22;12870;52.274;9.754;2022-07-24T07:05:38;20.20;99.90
24772;DHT22;12870;52.274;9.754;2022-07-24T07:08:04;20.30;99.90
24772;DHT22;12870;52.274;9.754;2022-07-24T07:10:30;20.40;99.90
24772;DHT22;12870;52.274;9.754;2022-07-24T07:12:56;20.50;99.90
24772;DHT22;12870;52.274;9.754;2022-07-24T07:15:22;20.60;99.90
24772;DHT22;12870;52.274;9.754;2022-07-24T07:17:48;20.70;99.90
24772;DHT22;12870;52.274;9.754;2022-07-24T07:20:14;20.90;99.90
24772;DHT22;12870;52.274;9.754;2022-07-24T07:22:40;21.00;99.90
24772;DHT22;12870;52.274;9.754;2022-07-24T07:25:07;21.10;99.90
24772;DHT22;12870;52.274;9.754;2022-07-24T07:27:34;21.10;99.90
24772;DHT22;12870;52.274;9.754;2022-07-24T07:30:00;21.20;99.90
24772;DHT22;12870;52.274;9.754;2022-07-24T07:32:26;21.30;99.90
24772;DHT22;12870;52.274;9.754;2022-07-24T07:34:52;21.40;99.90
24772;DHT22;12870;52.274;9.754;2022-07-24T07:37:17;21.50;99.90
24772;DHT22;12870;52.274;9.754;2022-07-24T07:39:43;21.70;99.90
24772;DHT22;12870;52.274;9.754;2022-07-24T07:42:09;21.70;99.90
24772;DHT22;12870;52.274;9.754;2022-07-24T07:44:34;21.80;99.90
24772;DHT22;12870;52.274;9.754;2022-07-24T07:47:00;21.90;99.90
24772;DHT22;12870;52.274;9.754;2022-07-24T07:49:26;22.10;99.90
24772;DHT22;12870;52.274;9.754;2022-07-24T07:51:51;22.20;99.90
24772;DHT22;12870;52.274;9.754;2022-07-24T07:54:18;22.30;99.90
24772;DHT22;12870;52.274;9.754;2022-07-24T07:56:43;22.40;99.90
24772;DHT22;12870;52.274;9.754;2022-07-24T07:59:09;22.50;99.90
24772;DHT22;12870;52.274;9.754;2022-07-24T08:01:35;22.50;99.90
24772;DHT22;12870;52.274;9.754;2022-07-24T08:04:01;22.60;99.90
24772;DHT22;12870;52.274;9.754;2022-07-24T08:06:26;22.70;99.90
24772;DHT22;12870;52.274;9.754;2022-07-24T08:08:52;22.90;99.90
24772;DHT22;12870;52.274;9.754;2022-07-24T08:11:18;23.00;99.90
24772;DHT22;12870;52.274;9.754;2022-07-24T08:13:43;23.10;99.90
24772;DHT22;12870;52.274;9.754;2022-07-24T08:16:09;23.20;99.90
24772;DHT22;12870;52.274;9.754;2022-07-24T08:18:35;23.20;99.90
24772;DHT22;12870;52.274;9.754;2022-07-24T08:21:01;23.30;99.90
24772;DHT22;12870;52.274;9.754;2022-07-24T08:23:26;23.50;99.90
24772;DHT22;12870;52.274;9.754;2022-07-24T08:25:52;23.50;99.90
24772;DHT22;12870;52.274;9.754;2022-07-24T08:28:18;23.50;99.90
24772;DHT22;12870;52.274;9.754;2022-07-24T08:30:43;23.60;99.90
24772;DHT22;12870;52.274;9.754;2022-07-24T08:33:09;23.60;99.90
24772;DHT22;12870;52.274;9.754;2022-07-24T08:35:35;23.80;99.90
24772;DHT22;12870;52.274;9.754;2022-07-24T08:38:02;24.00;99.90
24772;DHT22;12870;52.274;9.754;2022-07-24T08:40:38;24.10;99.90
24772;DHT22;12870;52.274;9.754;2022-07-24T08:43:06;24.20;99.90
24772;DHT22;12870;52.274;9.754;2022-07-24T08:45:40;24.20;99.90
24772;DHT22;12870;52.274;9.754;2022-07-24T08:48:08;24.30;99.90
24772;DHT22;12870;52.274;9.754;2022-07-24T08:50:37;24.50;99.90
24772;DHT22;12870;52.274;9.754;2022-07-24T08:53:04;24.60;99.90
24772;DHT22;12870;52.274;9.754;2022-07-24T08:55:30;24.80;99.90
24772;DHT22;12870;52.274;9.754;2022-07-24T08:57:57;24.80;99.90
24772;DHT22;12870;52.274;9.754;2022-07-24T09:00:24;24.90;99.90
24772;DHT22;12870;52.274;9.754;2022-07-24T09:02:50;25.00;99.90
24772;DHT22;12870;52.274;9.754;2022-07-24T09:05:16;25.30;99.90
24772;DHT22;12870;52.274;9.754;2022-07-24T09:07:41;25.40;99.90
24772;DHT22;12870;52.274;9.754;2022-07-24T09:10:11;25.60;99.90
24772;DHT22;12870;52.274;9.754;2022-07-24T09:12:42;25.60;99.90
24772;DHT22;12870;52.274;9.754;2022-07-24T09:15:21;25.90;99.90
24772;DHT22;12870;52.274;9.754;2022-07-24T09:17:59;26.10;99.90
24772;DHT22;12870;52.274;9.754;2022-07-24T09:20:26;26.30;99.90
24772;DHT22;12870;52.274;9.754;2022-07-24T09:22:53;26.50;99.90
24772;DHT22;12870;52.274;9.754;2022-07-24T09:25:24;26.50;99.90
24772;DHT22;12870;52.274;9.754;2022-07-24T09:28:02;26.70;99.90
24772;DHT22;12870;52.274;9.754;2022-07-24T09:30:42;27.00;99.90
24772;DHT22;12870;52.274;9.754;2022-07-24T09:35:40;27.20;99.90
24772;DHT22;12870;52.274;9.754;2022-07-24T09:38:12;27.00;99.90
24772;DHT22;12870;52.274;9.754;2022-07-24T09:40:40;27.20;99.90
24772;DHT22;12870;52.274;9.754;2022-07-24T09:45:56;27.80;99.90
24772;DHT22;12870;52.274;9.754;2022-07-24T09:48:35;27.60;99.90
24772;DHT22;12870;52.274;9.754;2022-07-24T09:51:02;27.70;99.90
24772;DHT22;12870;52.274;9.754;2022-07-24T09:53:31;28.00;99.90
24772;DHT22;12870;52.274;9.754;2022-07-24T09:58:38;28.50;99.90
24772;DHT22;12870;52.274;9.754;2022-07-24T10:01:05;28.60;99.90
24772;DHT22;12870;52.274;9.754;2022-07-24T10:03:36;28.60;99.90
24772;DHT22;12870;52.274;9.754;2022-07-24T10:06:05;28.90;99.90
24772;DHT22;12870;52.274;9.754;2022-07-24T10:08:33;29.00;99.70
24772;DHT22;12870;52.274;9.754;2022-07-24T10:10:59;29.10;99.90
24772;DHT22;12870;52.274;9.754;2022-07-24T10:13:25;29.10;99.20
24772;DHT22;12870;52.274;9.754;2022-07-24T10:18:53;29.10;98.90
24772;DHT22;12870;52.274;9.754;2022-07-24T10:21:35;29.20;98.80
24772;DHT22;12870;52.274;9.754;2022-07-24T10:26:45;29.30;98.30
24772;DHT22;12870;52.274;9.754;2022-07-24T10:29:13;29.50;97.10
24772;DHT22;12870;52.274;9.754;2022-07-24T10:31:50;29.20;95.60
24772;DHT22;12870;52.274;9.754;2022-07-24T10:40:06;29.80;93.80
24772;DHT22;12870;52.274;9.754;2022-07-24T10:42:46;29.70;92.70
24772;DHT22;12870;52.274;9.754;2022-07-24T10:45:19;30.10;94.70
24772;DHT22;12870;52.274;9.754;2022-07-24T10:47:45;30.70;93.10
24772;DHT22;12870;52.274;9.754;2022-07-24T10:50:12;30.20;91.90
24772;DHT22;12870;52.274;9.754;2022-07-24T10:52:40;30.10;93.20
24772;DHT22;12870;52.274;9.754;2022-07-24T10:57:53;31.20;92.40
24772;DHT22;12870;52.274;9.754;2022-07-24T11:00:27;31.30;91.70
24772;DHT22;12870;52.274;9.754;2022-07-24T11:03:00;31.50;92.50
24772;DHT22;12870;52.274;9.754;2022-07-24T11:05:27;31.80;91.60
24772;DHT22;12870;52.274;9.754;2022-07-24T11:10:50;32.00;90.20
24772;DHT22;12870;52.274;9.754;2022-07-24T11:21:39;33.40;87.30
24772;DHT22;12870;52.274;9.754;2022-07-24T11:24:15;33.80;84.60
24772;DHT22;12870;52.274;9.754;2022-07-24T11:26:50;33.10;82.00
24772;DHT22;12870;52.274;9.754;2022-07-24T11:29:18;33.00;85.20
24772;DHT22;12870;52.274;9.754;2022-07-24T11:31:49;32.70;82.00
24772;DHT22;12870;52.274;9.754;2022-07-24T11:34:16;32.30;81.70
24772;DHT22;12870;52.274;9.754;2022-07-24T11:36:48;32.80;84.70
24772;DHT22;12870;52.274;9.754;2022-07-24T11:39:19;33.60;81.90
24772;DHT22;12870;52.274;9.754;2022-07-24T11:41:53;33.30;77.80
24772;DHT22;12870;52.274;9.754;2022-07-24T11:44:40;33.30;79.10
24772;DHT22;12870;52.274;9.754;2022-07-24T11:49:49;34.20;74.90
24772;DHT22;12870;52.274;9.754;2022-07-24T11:52:25;34.30;75.10
24772;DHT22;12870;52.274;9.754;2022-07-24T11:54:55;34.00;71.90
24772;DHT22;12870;52.274;9.754;2022-07-24T11:57:27;33.00;72.30
24772;DHT22;12870;52.274;9.754;2022-07-24T11:59:53;32.70;73.40
24772;DHT22;12870;52.274;9.754;2022-07-24T12:02:21;32.90;72.60
24772;DHT22;12870;52.274;9.754;2022-07-24T12:04:48;33.10;72.40
24772;DHT22;12870;52.274;9.754;2022-07-24T12:07:23;33.50;73.30
24772;DHT22;12870;52.274;9.754;2022-07-24T12:09:51;33.40;71.40
24772;DHT22;12870;52.274;9.754;2022-07-24T12:14:45;33.60;70.70
24772;DHT22;12870;52.274;9.754;2022-07-24T12:17:11;34.20;71.30
24772;DHT22;12870;52.274;9.754;2022-07-24T12:19:36;34.90;69.50
24772;DHT22;12870;52.274;9.754;2022-07-24T12:22:02;34.90;67.50
24772;DHT22;12870;52.274;9.754;2022-07-24T12:24:31;34.90;67.30
24772;DHT22;12870;52.274;9.754;2022-07-24T12:26:58;33.80;66.90
24772;DHT22;12870;52.274;9.754;2022-07-24T12:29:25;33.30;66.50
24772;DHT22;12870;52.274;9.754;2022-07-24T12:32:14;33.40;68.70
24772;DHT22;12870;52.274;9.754;2022-07-24T12:34:41;34.10;70.60
24772;DHT22;12870;52.274;9.754;2022-07-24T12:37:33;34.70;65.60
24772;DHT22;12870;52.274;9.754;2022-07-24T12:40:02;34.70;63.90
24772;DHT22;12870;52.274;9.754;2022-07-24T12:42:30;35.00;64.90
24772;DHT22;12870;52.274;9.754;2022-07-24T12:45:09;35.40;65.40
24772;DHT22;12870;52.274;9.754;2022-07-24T12:48:07;36.10;64.80
24772;DHT22;12870;52.274;9.754;2022-07-24T12:50:33;37.00;64.30
24772;DHT22;12870;52.274;9.754;2022-07-24T12:53:08;37.10;60.70
24772;DHT22;12870;52.274;9.754;2022-07-24T12:55:35;36.30;59.20
24772;DHT22;12870;52.274;9.754;2022-07-24T12:58:04;35.70;59.00
24772;DHT22;12870;52.274;9.754;2022-07-24T13:00:30;35.50;59.30
24772;DHT22;12870;52.274;9.754;2022-07-24T13:02:57;34.90;59.70
24772;DHT22;12870;52.274;9.754;2022-07-24T13:05:42;35.10;60.50
24772;DHT22;12870;52.274;9.754;2022-07-24T13:08:10;35.70;61.10
24772;DHT22;12870;52.274;9.754;2022-07-24T13:10:36;36.00;58.90
24772;DHT22;12870;52.274;9.754;2022-07-24T13:13:02;35.40;59.20
24772;DHT22;12870;52.274;9.754;2022-07-24T13:15:28;35.60;60.60
24772;DHT22;12870;52.274;9.754;2022-07-24T13:17:54;35.60;59.30
24772;DHT22;12870;52.274;9.754;2022-07-24T13:20:20;36.20;59.20
24772;DHT22;12870;52.274;9.754;2022-07-24T13:22:46;36.60;59.30
24772;DHT22;12870;52.274;9.754;2022-07-24T13:25:12;36.30;57.70
24772;DHT22;12870;52.274;9.754;2022-07-24T13:27:37;35.70;57.50
24772;DHT22;12870;52.274;9.754;2022-07-24T13:30:04;35.80;57.40
24772;DHT22;12870;52.274;9.754;2022-07-24T13:32:29;35.60;57.30
24772;DHT22;12870;52.274;9.754;2022-07-24T13:34:55;35.80;56.50
24772;DHT22;12870;52.274;9.754;2022-07-24T13:37:21;35.80;55.50
24772;DHT22;12870;52.274;9.754;2022-07-24T13:39:46;35.90;56.90
24772;DHT22;12870;52.274;9.754;2022-07-24T13:42:12;35.60;57.20
24772;DHT22;12870;52.274;9.754;2022-07-24T13:44:40;35.10;57.70
24772;DHT22;12870;52.274;9.754;2022-07-24T13:47:06;35.20;57.00
24772;DHT22;12870;52.274;9.754;2022-07-24T13:49:33;35.30;56.80
24772;DHT22;12870;52.274;9.754;2022-07-24T13:51:58;35.90;58.00
24772;DHT22;12870;52.274;9.754;2022-07-24T13:54:24;36.10;57.10
24772;DHT22;12870;52.274;9.754;2022-07-24T13:56:52;36.20;56.90
24772;DHT22;12870;52.274;9.754;2022-07-24T13:59:17;35.60;55.70
24772;DHT22;12870;52.274;9.754;2022-07-24T14:01:43;35.00;56.60
24772;DHT22;12870;52.274;9.754;2022-07-24T14:04:09;35.10;57.60
24772;DHT22;12870;52.274;9.754;2022-07-24T14:06:35;35.40;56.30
24772;DHT22;12870;52.274;9.754;2022-07-24T14:09:03;35.20;57.00
24772;DHT22;12870;52.274;9.754;2022-07-24T14:11:29;35.50;56.40
24772;DHT22;12870;52.274;9.754;2022-07-24T14:13:54;35.30;56.70
24772;DHT22;12870;52.274;9.754;2022-07-24T14:16:20;34.90;56.60
24772;DHT22;12870;52.274;9.754;2022-07-24T14:18:46;35.40;56.20
24772;DHT22;12870;52.274;9.754;2022-07-24T14:21:12;35.10;55.30
24772;DHT22;12870;52.274;9.754;2022-07-24T14:23:38;35.50;56.40
24772;DHT22;12870;52.274;9.754;2022-07-24T14:26:04;35.10;55.40
24772;DHT22;12870;52.274;9.754;2022-07-24T14:28:31;35.00;56.20
24772;DHT22;12870;52.274;9.754;2022-07-24T14:30:57;34.80;57.00
24772;DHT22;12870;52.274;9.754;2022-07-24T14:33:23;35.10;57.20
24772;DHT22;12870;52.274;9.754;2022-07-24T14:35:48;35.10;56.40
24772;DHT22;12870;52.274;9.754;2022-07-24T14:38:14;35.30;58.20
24772;DHT22;12870;52.274;9.754;2022-07-24T14:40:40;35.90;57.70
24772;DHT22;12870;52.274;9.754;2022-07-24T14:43:06;36.10;56.10
24772;DHT22;12870;52.274;9.754;2022-07-24T14:45:31;35.50;55.20
24772;DHT22;12870;52.274;9.754;2022-07-24T14:47:57;35.20;55.60
24772;DHT22;12870;52.274;9.754;2022-07-24T14:50:23;35.60;56.20
24772;DHT22;12870;52.274;9.754;2022-07-24T14:52:48;35.70;55.30
24772;DHT22;12870;52.274;9.754;2022-07-24T14:55:14;36.00;57.30
24772;DHT22;12870;52.274;9.754;2022-07-24T14:57:40;35.90;54.90
24772;DHT22;12870;52.274;9.754;2022-07-24T15:00:06;35.90;55.20
24772;DHT22;12870;52.274;9.754;2022-07-24T15:02:33;36.10;54.40
24772;DHT22;12870;52.274;9.754;2022-07-24T15:04:58;36.00;54.90
24772;DHT22;12870;52.274;9.754;2022-07-24T15:07:25;35.80;55.20
24772;DHT22;12870;52.274;9.754;2022-07-24T15:09:50;35.80;55.50
24772;DHT22;12870;52.274;9.754;2022-07-24T15:12:16;36.10;54.70
24772;DHT22;12870;52.274;9.754;2022-07-24T15:14:42;36.10;56.00
24772;DHT22;12870;52.274;9.754;2022-07-24T15:17:09;36.40;55.10
24772;DHT22;12870;52.274;9.754;2022-07-24T15:19:34;36.80;54.50
24772;DHT22;12870;52.274;9.754;2022-07-24T15:22:00;36.80;53.40
24772;DHT22;12870;52.274;9.754;2022-07-24T15:24:25;36.40;54.70
24772;DHT22;12870;52.274;9.754;2022-07-24T15:26:51;36.00;54.60
24772;DHT22;12870;52.274;9.754;2022-07-24T15:29:17;35.50;54.30
24772;DHT22;12870;52.274;9.754;2022-07-24T15:31:44;35.90;56.50
24772;DHT22;12870;52.274;9.754;2022-07-24T15:34:11;36.30;55.70
24772;DHT22;12870;52.274;9.754;2022-07-24T15:36:37;36.00;54.80
24772;DHT22;12870;52.274;9.754;2022-07-24T15:39:03;35.50;54.20
24772;DHT22;12870;52.274;9.754;2022-07-24T15:41:29;35.80;55.40
24772;DHT22;12870;52.274;9.754;2022-07-24T15:43:55;35.20;53.90
24772;DHT22;12870;52.274;9.754;2022-07-24T15:46:20;35.30;54.70
24772;DHT22;12870;52.274;9.754;2022-07-24T15:48:46;34.80;54.70
24772;DHT22;12870;52.274;9.754;2022-07-24T15:51:12;35.10;55.10
24772;DHT22;12870;52.274;9.754;2022-07-24T15:53:37;35.10;55.10
24772;DHT22;12870;52.274;9.754;2022-07-24T15:56:03;35.10;55.80
24772;DHT22;12870;52.274;9.754;2022-07-24T15:58:29;35.30;54.80
24772;DHT22;12870;52.274;9.754;2022-07-24T16:00:55;35.40;55.20
24772;DHT22;12870;52.274;9.754;2022-07-24T16:03:20;35.10;55.60
24772;DHT22;12870;52.274;9.754;2022-07-24T16:05:46;35.30;55.40
24772;DHT22;12870;52.274;9.754;2022-07-24T16:08:12;35.50;54.90